createdAt,value
2022-08-07T00:01:12.778Z,54.49
2022-08-07T00:02:39.924Z,54.31
2022-08-07T00:03:47.242Z,54.34
2022-08-07T00:04:49.221Z,54.20
2022-08-07T00:05:52.750Z,54.00
2022-08-07T00:06:55.630Z,53.92
2022-08-07T00:08:04.110Z,53.74
2022-08-07T00:09:16.204Z,53.58
2022-08-07T00:10:26.961Z,53.08
2022-08-07T00:11:33.244Z,53.05
2022-08-07T00:12:35.066Z,53.18
2022-08-07T00:13:56.864Z,53.20
2022-08-07T00:14:58.602Z,52.76
2022-08-07T00:16:00.481Z,53.10
2022-08-07T00:17:03.126Z,52.90
2022-08-07T00:18:05.390Z,52.79
2022-08-07T00:19:07.069Z,52.70
2022-08-07T00:20:30.014Z,52.66
2022-08-07T00:21:56.914Z,52.41
2022-08-07T00:22:57.948Z,52.52
2022-08-07T00:24:00.753Z,52.81
2022-08-07T00:25:07.320Z,52.82
2022-08-07T00:26:31.441Z,52.60
2022-08-07T00:27:52.154Z,52.56
2022-08-07T00:28:57.026Z,52.45
2022-08-07T00:29:58.796Z,52.98
2022-08-07T00:31:06.192Z,53.80
2022-08-07T00:32:14.507Z,54.98
2022-08-07T00:33:17.555Z,55.36
2022-08-07T00:34:19.195Z,55.31
2022-08-07T00:35:23.372Z,55.86
2022-08-07T00:36:25.639Z,55.91
2022-08-07T00:37:30.708Z,56.33
2022-08-07T00:38:50.510Z,56.33
2022-08-07T00:39:56.070Z,56.03
2022-08-07T00:40:58.068Z,56.08
2022-08-07T00:42:02.403Z,55.68
2022-08-07T00:43:09.753Z,55.91
2022-08-07T00:44:12.232Z,55.76
2022-08-07T00:45:16.871Z,55.41
2022-08-07T00:46:19.083Z,55.08
2022-08-07T00:48:09.359Z,55.25
2022-08-07T00:48:43.191Z,54.88
2022-08-07T00:50:18.944Z,54.69
2022-08-07T00:51:06.464Z,54.57
2022-08-07T00:52:10.006Z,54.40
2022-08-07T00:53:11.576Z,54.36
2022-08-07T00:54:15.372Z,54.29
2022-08-07T00:55:25.587Z,54.26
2022-08-07T00:56:44.700Z,54.18
2022-08-07T00:57:55.382Z,54.10
2022-08-07T00:58:58.389Z,54.31
2022-08-07T01:00:00.098Z,53.94
2022-08-07T01:01:01.854Z,53.88
2022-08-07T01:02:13.928Z,54.11
2022-08-07T01:03:55.709Z,53.72
2022-08-07T01:04:52.398Z,54.09
2022-08-07T01:05:56.722Z,54.25
2022-08-07T01:06:58.648Z,54.07
2022-08-07T01:08:00.476Z,54.16
2022-08-07T01:09:03.604Z,54.11
2022-08-07T01:10:11.103Z,54.43
2022-08-07T01:12:04.444Z,54.10
2022-08-07T01:12:37.766Z,54.14
2022-08-07T01:13:41.407Z,54.15
2022-08-07T01:15:01.085Z,54.33
2022-08-07T01:16:06.658Z,54.50
2022-08-07T01:17:09.810Z,54.63
2022-08-07T01:18:17.031Z,55.33
2022-08-07T01:19:20.969Z,55.71
2022-08-07T01:20:33.128Z,55.96
2022-08-07T01:21:36.828Z,56.45
2022-08-07T01:22:46.538Z,57.03
2022-08-07T01:23:57.735Z,57.70
2022-08-07T01:25:00.906Z,57.23
2022-08-07T01:26:08.418Z,57.01
2022-08-07T01:27:19.484Z,56.85
2022-08-07T01:28:22.065Z,56.66
2022-08-07T01:29:27.639Z,56.57
2022-08-07T01:30:31.209Z,57.19
2022-08-07T01:31:42.392Z,56.87
2022-08-07T01:32:49.915Z,56.71
2022-08-07T01:33:55.906Z,56.73
2022-08-07T01:35:00.259Z,57.18
2022-08-07T01:36:05.921Z,57.62
2022-08-07T01:37:09.565Z,57.17
2022-08-07T01:38:12.273Z,57.54
2022-08-07T01:39:14.269Z,58.18
2022-08-07T01:40:20.945Z,58.09
2022-08-07T01:41:26.349Z,58.36
2022-08-07T01:42:39.874Z,58.38
2022-08-07T01:43:51.247Z,58.47
2022-08-07T01:44:53.175Z,58.87
2022-08-07T01:45:55.346Z,59.08
2022-08-07T01:47:01.209Z,58.47
2022-08-07T01:48:30.242Z,58.89
2022-08-07T01:49:32.910Z,59.46
2022-08-07T01:50:38.269Z,59.91
2022-08-07T01:52:03.677Z,59.62
2022-08-07T01:53:08.550Z,59.85
2022-08-07T01:54:32.699Z,59.89
2022-08-07T01:55:45.554Z,59.34
2022-08-07T01:57:00.027Z,59.44
2022-08-07T01:58:27.389Z,59.50
2022-08-07T01:59:48.306Z,59.39
2022-08-07T02:01:25.005Z,58.99
2022-08-07T02:03:15.989Z,58.88
2022-08-07T02:04:12.002Z,59.33
2022-08-07T02:05:48.091Z,59.30
2022-08-07T02:06:50.129Z,59.33
2022-08-07T02:07:54.635Z,59.40
2022-08-07T02:08:57.594Z,59.87
2022-08-07T02:10:01.433Z,59.74
2022-08-07T02:11:04.800Z,59.89
2022-08-07T02:12:18.369Z,59.63
2022-08-07T02:13:56.533Z,59.96
2022-08-07T02:14:55.030Z,60.03
2022-08-07T02:16:00.892Z,59.91
2022-08-07T02:17:03.755Z,59.80
2022-08-07T02:18:12.688Z,60.53
2022-08-07T02:20:07.220Z,60.67
2022-08-07T02:20:39.641Z,60.28
2022-08-07T02:21:56.209Z,59.90
2022-08-07T02:23:02.569Z,59.97
2022-08-07T02:24:06.073Z,60.57
2022-08-07T02:25:17.658Z,61.03
2022-08-07T02:26:32.602Z,61.34
2022-08-07T02:27:41.139Z,61.29
2022-08-07T02:28:43.925Z,60.85
2022-08-07T02:29:53.932Z,60.86
2022-08-07T02:30:57.665Z,60.39
2022-08-07T02:32:01.682Z,60.38
2022-08-07T02:33:09.241Z,60.10
2022-08-07T02:34:18.025Z,59.85
2022-08-07T02:35:20.874Z,59.08
2022-08-07T02:36:43.364Z,60.32
2022-08-07T02:37:48.337Z,61.39
2022-08-07T02:38:56.992Z,61.40
2022-08-07T02:40:11.447Z,61.72
2022-08-07T02:41:22.992Z,61.88
2022-08-07T02:42:35.916Z,61.77
2022-08-07T02:43:39.761Z,62.02
2022-08-07T02:44:47.894Z,61.56
2022-08-07T02:45:59.084Z,61.40
2022-08-07T02:47:05.732Z,61.38
2022-08-07T02:48:10.030Z,61.04
2022-08-07T02:49:12.150Z,61.07
2022-08-07T02:50:34.425Z,60.78
2022-08-07T02:51:49.658Z,60.47
2022-08-07T02:53:01.042Z,60.22
2022-08-07T02:54:09.470Z,60.23
2022-08-07T02:55:28.253Z,60.64
2022-08-07T02:56:47.953Z,60.91
2022-08-07T02:57:52.464Z,61.15
2022-08-07T02:58:55.312Z,60.70
2022-08-07T03:00:01.212Z,60.26
2022-08-07T03:01:16.033Z,60.45
2022-08-07T03:02:21.677Z,60.10
2022-08-07T03:03:29.618Z,59.67
2022-08-07T03:04:49.943Z,60.01
2022-08-07T03:05:53.776Z,60.08
2022-08-07T03:06:56.250Z,59.99
2022-08-07T03:08:07.271Z,60.01
2022-08-07T03:09:11.621Z,60.45
2022-08-07T03:10:14.432Z,60.61
2022-08-07T03:11:17.277Z,60.42
2022-08-07T03:12:22.455Z,60.26
2022-08-07T03:13:38.792Z,60.26
2022-08-07T03:14:42.882Z,60.08
2022-08-07T03:15:58.448Z,59.98
2022-08-07T03:17:00.524Z,59.88
2022-08-07T03:18:06.332Z,60.21
2022-08-07T03:19:09.029Z,60.23
2022-08-07T03:20:11.633Z,59.95
2022-08-07T03:21:18.869Z,59.68
2022-08-07T03:22:24.193Z,59.85
2022-08-07T03:23:34.173Z,60.18
2022-08-07T03:24:54.848Z,60.29
2022-08-07T03:26:00.464Z,60.17
2022-08-07T03:27:04.958Z,60.41
2022-08-07T03:28:37.729Z,60.42
2022-08-07T03:29:49.402Z,61.03
2022-08-07T03:31:13.289Z,61.18
2022-08-07T03:32:17.397Z,61.24
2022-08-07T03:33:19.524Z,61.56
2022-08-07T03:34:22.824Z,61.79
2022-08-07T03:35:43.624Z,62.31
2022-08-07T03:36:54.110Z,61.88
2022-08-07T03:38:04.908Z,62.05
2022-08-07T03:39:09.822Z,62.00
2022-08-07T03:40:16.232Z,61.57
2022-08-07T03:41:19.611Z,61.42
2022-08-07T03:42:41.911Z,61.19
2022-08-07T03:43:57.294Z,61.05
2022-08-07T03:44:59.717Z,61.01
2022-08-07T03:46:10.536Z,60.94
2022-08-07T03:47:20.592Z,60.91
2022-08-07T03:48:24.566Z,61.04
2022-08-07T03:49:28.767Z,61.40
2022-08-07T03:50:34.898Z,61.29
2022-08-07T03:51:47.092Z,61.39
2022-08-07T03:52:50.733Z,61.17
2022-08-07T03:54:33.380Z,61.17
2022-08-07T03:55:14.258Z,61.97
2022-08-07T03:56:32.677Z,62.98
2022-08-07T03:59:06.730Z,64.61
2022-08-07T03:59:08.571Z,65.60
2022-08-07T04:00:12.484Z,65.97
2022-08-07T04:01:18.350Z,65.58
2022-08-07T04:02:21.019Z,66.08
2022-08-07T04:03:22.995Z,65.91
2022-08-07T04:04:25.630Z,65.39
2022-08-07T04:05:39.608Z,65.14
2022-08-07T04:06:43.624Z,64.88
2022-08-07T04:07:48.390Z,65.06
2022-08-07T04:08:51.940Z,65.01
2022-08-07T04:09:55.091Z,64.66
2022-08-07T04:12:21.312Z,64.64
2022-08-07T04:12:28.231Z,64.10
2022-08-07T04:14:09.396Z,64.93
2022-08-07T04:15:55.192Z,66.46
2022-08-07T04:16:58.825Z,67.09
2022-08-07T04:18:56.928Z,66.55
2022-08-07T04:19:51.048Z,66.73
2022-08-07T04:20:54.555Z,67.54
2022-08-07T04:21:59.516Z,67.75
2022-08-07T04:23:09.213Z,67.17
2022-08-07T04:24:30.444Z,66.64
2022-08-07T04:25:39.380Z,66.21
2022-08-07T04:26:43.623Z,65.94
2022-08-07T04:27:59.254Z,65.57
2022-08-07T04:29:03.070Z,65.77
2022-08-07T04:30:11.868Z,66.05
2022-08-07T04:31:19.984Z,65.79
2022-08-07T04:32:27.293Z,65.42
2022-08-07T04:33:40.194Z,64.49
2022-08-07T04:34:42.296Z,64.38
2022-08-07T04:35:50.383Z,63.70
2022-08-07T04:36:52.971Z,62.85
2022-08-07T04:38:05.431Z,61.62
2022-08-07T04:39:10.520Z,61.67
2022-08-07T04:40:13.180Z,61.28
2022-08-07T04:41:19.020Z,60.27
2022-08-07T04:42:20.920Z,59.36
2022-08-07T04:44:12.271Z,58.29
2022-08-07T04:45:02.872Z,56.80
2022-08-07T04:46:25.992Z,56.13
2022-08-07T04:48:01.714Z,56.26
2022-08-07T04:49:25.607Z,54.05
2022-08-07T04:50:56.403Z,54.46
2022-08-07T04:52:25.107Z,54.97
2022-08-07T04:54:00.954Z,55.73
2022-08-07T04:58:10.521Z,55.84
2022-08-07T04:58:11.707Z,55.47
2022-08-07T05:00:19.045Z,54.12
2022-08-07T05:01:40.720Z,54.05
2022-08-07T05:02:55.492Z,54.16
2022-08-07T05:04:17.438Z,53.03
2022-08-07T05:05:53.372Z,52.20
2022-08-07T05:07:20.212Z,51.94
2022-08-07T05:08:59.110Z,53.07
2022-08-07T05:10:02.690Z,54.25
2022-08-07T05:11:19.296Z,54.55
2022-08-07T05:12:30.555Z,54.11
2022-08-07T05:14:54.447Z,54.05
2022-08-07T05:15:23.382Z,53.60
2022-08-07T05:16:29.312Z,53.65
2022-08-07T05:17:51.697Z,53.59
2022-08-07T05:18:57.670Z,53.04
2022-08-07T05:19:59.597Z,52.66
2022-08-07T05:21:04.697Z,52.79
2022-08-07T05:22:10.163Z,53.42
2022-08-07T05:23:17.849Z,54.22
2022-08-07T05:24:24.571Z,54.61
2022-08-07T05:26:10.687Z,55.45
2022-08-07T05:26:59.217Z,55.61
2022-08-07T05:28:20.109Z,55.74
2022-08-07T05:29:26.236Z,55.63
2022-08-07T05:30:41.169Z,55.28
2022-08-07T05:31:51.155Z,55.35
2022-08-07T05:32:55.796Z,55.10
2022-08-07T05:34:05.692Z,54.40
2022-08-07T05:35:15.925Z,53.98
2022-08-07T05:36:22.549Z,53.69
2022-08-07T05:37:32.939Z,53.53
2022-08-07T05:39:01.265Z,53.18
2022-08-07T05:40:17.702Z,51.87
2022-08-07T05:41:22.414Z,51.05
2022-08-07T05:42:34.268Z,51.03
2022-08-07T05:43:49.739Z,51.50
2022-08-07T05:45:11.836Z,51.24
2022-08-07T05:46:22.055Z,50.72
2022-08-07T05:47:38.661Z,49.93
2022-08-07T05:48:59.168Z,49.65
2022-08-07T05:50:03.045Z,49.22
2022-08-07T05:51:07.165Z,48.64
2022-08-07T05:52:11.572Z,48.53
2022-08-07T05:54:08.691Z,48.53
2022-08-07T05:54:44.610Z,47.95
2022-08-07T05:56:01.864Z,47.39
2022-08-07T05:57:06.660Z,46.85
2022-08-07T05:58:11.770Z,46.40
2022-08-07T05:59:19.293Z,45.69
2022-08-07T06:00:24.480Z,45.20
2022-08-07T06:01:34.853Z,44.78
2022-08-07T06:02:40.020Z,44.12
2022-08-07T06:03:57.088Z,43.77
2022-08-07T06:05:10.756Z,43.51
2022-08-07T06:06:18.972Z,42.65
2022-08-07T06:07:23.026Z,42.59
2022-08-07T06:08:44.583Z,42.59
2022-08-07T06:10:05.061Z,43.08
2022-08-07T06:11:08.865Z,43.10
2022-08-07T06:12:12.440Z,43.11
2022-08-07T06:13:17.699Z,42.75
2022-08-07T06:14:20.760Z,43.16
2022-08-07T06:15:39.353Z,43.98
2022-08-07T06:16:50.647Z,44.31
2022-08-07T06:17:58.818Z,44.38
2022-08-07T06:19:03.189Z,44.30
2022-08-07T06:20:12.723Z,44.83
2022-08-07T06:22:16.875Z,44.18
2022-08-07T06:23:02.355Z,44.61
2022-08-07T06:24:52.187Z,44.64
2022-08-07T06:25:36.744Z,44.92
2022-08-07T06:26:42.543Z,45.87
2022-08-07T06:28:01.280Z,46.41
2022-08-07T06:29:04.221Z,46.59
2022-08-07T06:30:08.692Z,46.90
2022-08-07T06:31:46.996Z,47.59
2022-08-07T06:32:51.918Z,48.11
2022-08-07T06:33:53.563Z,48.62
2022-08-07T06:34:56.300Z,49.32
2022-08-07T06:36:12.428Z,49.33
2022-08-07T06:37:27.208Z,48.41
2022-08-07T06:38:37.675Z,48.46
2022-08-07T06:40:16.591Z,48.09
2022-08-07T06:41:03.579Z,47.94
2022-08-07T06:42:15.524Z,47.46
2022-08-07T06:43:20.909Z,47.68
2022-08-07T06:44:26.376Z,47.26
2022-08-07T06:45:35.860Z,48.16
2022-08-07T06:46:40.287Z,48.06
2022-08-07T06:47:48.044Z,47.12
2022-08-07T06:49:00.658Z,46.38
2022-08-07T06:50:06.961Z,46.31
2022-08-07T06:51:31.061Z,46.42
2022-08-07T06:52:37.722Z,45.07
2022-08-07T06:55:27.692Z,45.72
2022-08-07T06:55:33.272Z,44.75
2022-08-07T06:56:49.426Z,44.39
2022-08-07T06:57:56.878Z,44.25
2022-08-07T07:00:11.855Z,43.84
2022-08-07T07:00:21.153Z,44.25
2022-08-07T07:01:23.099Z,43.53
2022-08-07T07:02:53.570Z,42.99
2022-08-07T07:03:58.130Z,42.74
2022-08-07T07:05:12.894Z,42.63
2022-08-07T07:06:14.746Z,42.60
2022-08-07T07:07:58.462Z,43.01
2022-08-07T07:08:49.412Z,43.31
2022-08-07T07:09:52.139Z,43.04
2022-08-07T07:10:57.329Z,42.31
2022-08-07T07:12:16.651Z,42.43
2022-08-07T07:13:43.669Z,42.17
2022-08-07T07:14:58.215Z,42.32
2022-08-07T07:16:05.275Z,41.83
2022-08-07T07:17:16.175Z,41.19
2022-08-07T07:18:47.906Z,41.83
2022-08-07T07:19:59.197Z,41.49
2022-08-07T07:21:13.592Z,41.20
2022-08-07T07:22:36.413Z,41.10
2022-08-07T07:24:06.074Z,40.42
2022-08-07T07:26:31.054Z,40.15
2022-08-07T07:26:37.245Z,40.10
2022-08-07T07:27:56.083Z,40.53
2022-08-07T07:29:40.219Z,40.70
2022-08-07T07:30:40.096Z,40.54
2022-08-07T07:31:46.946Z,40.94
2022-08-07T07:32:49.915Z,40.77
2022-08-07T07:33:57.658Z,40.29
2022-08-07T07:35:04.019Z,40.29
2022-08-07T07:36:13.201Z,39.91
2022-08-07T07:37:45.242Z,39.89
2022-08-07T07:38:41.150Z,39.80
2022-08-07T07:39:54.669Z,39.91
2022-08-07T07:41:03.239Z,39.28
2022-08-07T07:42:13.406Z,39.48
2022-08-07T07:43:18.699Z,38.85
2022-08-07T07:44:31.591Z,38.60
2022-08-07T07:46:36.665Z,37.20
2022-08-07T07:47:04.320Z,37.38
2022-08-07T07:48:35.313Z,37.23
2022-08-07T07:50:34.694Z,37.27
2022-08-07T07:51:08.024Z,36.26
2022-08-07T07:52:12.980Z,35.96
2022-08-07T07:53:22.930Z,35.64
2022-08-07T07:54:27.639Z,35.93
2022-08-07T07:55:37.612Z,36.28
2022-08-07T07:56:48.988Z,36.21
2022-08-07T07:57:54.067Z,36.79
2022-08-07T07:59:02.889Z,35.04
2022-08-07T08:00:05.380Z,36.31
2022-08-07T08:02:03.603Z,36.57
2022-08-07T08:02:36.070Z,35.82
2022-08-07T08:04:09.505Z,35.92
2022-08-07T08:05:11.425Z,36.20
2022-08-07T08:06:18.003Z,35.98
2022-08-07T08:07:19.989Z,35.89
2022-08-07T08:08:35.059Z,36.69
2022-08-07T08:09:52.087Z,36.41
2022-08-07T08:11:02.923Z,36.50
2022-08-07T08:12:06.190Z,35.94
2022-08-07T08:13:15.170Z,35.65
2022-08-07T08:14:20.253Z,36.11
2022-08-07T08:15:29.534Z,36.42
2022-08-07T08:16:52.300Z,36.91
2022-08-07T08:17:58.776Z,36.01
2022-08-07T08:20:17.975Z,36.87
2022-08-07T08:20:49.019Z,36.92
2022-08-07T08:22:10.808Z,36.79
2022-08-07T08:23:34.802Z,36.72
2022-08-07T08:25:18.836Z,36.32
2022-08-07T08:26:40.550Z,36.84
2022-08-07T08:27:56.806Z,36.87
2022-08-07T08:29:03.723Z,36.53
2022-08-07T08:30:08.685Z,36.75
2022-08-07T08:31:59.075Z,36.15
2022-08-07T08:32:53.743Z,37.38
2022-08-07T08:33:58.008Z,36.71
2022-08-07T08:35:01.592Z,37.38
2022-08-07T08:36:07.669Z,36.80
2022-08-07T08:38:01.185Z,36.40
2022-08-07T08:38:41.115Z,36.85
2022-08-07T08:39:54.890Z,35.97
2022-08-07T08:41:13.318Z,35.93
2022-08-07T08:42:25.725Z,34.55
2022-08-07T08:43:42.965Z,35.42
2022-08-07T08:45:05.769Z,35.26
2022-08-07T08:46:25.719Z,34.78
2022-08-07T08:47:57.551Z,35.57
2022-08-07T08:49:33.540Z,35.15
2022-08-07T08:50:54.388Z,34.86
2022-08-07T08:52:32.098Z,35.22
2022-08-07T08:53:42.966Z,35.81
2022-08-07T08:54:53.397Z,36.09
2022-08-07T08:55:59.160Z,36.91
2022-08-07T08:57:08.852Z,35.53
2022-08-07T08:58:20.274Z,36.61
2022-08-07T08:59:48.206Z,35.49
2022-08-07T09:00:56.535Z,35.68
2022-08-07T09:02:34.684Z,36.28
2022-08-07T09:03:58.725Z,35.96
2022-08-07T09:05:36.816Z,36.52
2022-08-07T09:06:52.436Z,36.28
2022-08-07T09:08:28.561Z,36.22
2022-08-07T09:09:56.825Z,36.56
2022-08-07T09:11:24.507Z,35.92
2022-08-07T09:12:35.637Z,35.79
2022-08-07T09:13:43.713Z,36.12
2022-08-07T09:14:58.815Z,36.00
2022-08-07T09:16:24.457Z,36.31
2022-08-07T09:17:59.462Z,35.79
2022-08-07T09:19:52.635Z,36.77
2022-08-07T09:21:13.819Z,36.20
2022-08-07T09:24:33.193Z,36.99
2022-08-07T09:25:00.881Z,36.87
2022-08-07T09:26:47.843Z,36.89
2022-08-07T09:28:00.200Z,36.85
2022-08-07T09:30:03.322Z,36.19
2022-08-07T09:31:03.114Z,37.39
2022-08-07T09:32:26.419Z,37.27
2022-08-07T09:33:57.412Z,37.68
2022-08-07T09:35:04.553Z,38.25
2022-08-07T09:36:43.258Z,38.43
2022-08-07T09:38:00.390Z,38.01
2022-08-07T09:39:55.560Z,38.27
2022-08-07T09:41:07.811Z,37.27
2022-08-07T09:42:43.473Z,36.93
2022-08-07T09:44:05.764Z,36.91
2022-08-07T09:47:26.253Z,37.99
2022-08-07T09:47:50.660Z,37.07
2022-08-07T09:48:43.905Z,37.96
2022-08-07T09:50:02.809Z,38.77
2022-08-07T09:52:10.571Z,38.22
2022-08-07T09:53:15.834Z,38.12
2022-08-07T09:54:27.248Z,38.71
2022-08-07T09:56:13.641Z,38.57
2022-08-07T09:57:50.848Z,38.96
2022-08-07T09:59:14.801Z,37.83
2022-08-07T10:00:24.437Z,38.38
2022-08-07T10:02:03.235Z,39.00
2022-08-07T10:04:06.535Z,38.40
2022-08-07T10:05:14.134Z,38.56
2022-08-07T10:06:35.644Z,39.21
2022-08-07T10:07:59.146Z,38.95
2022-08-07T10:09:18.061Z,38.92
2022-08-07T10:11:17.296Z,37.45
2022-08-07T10:12:26.449Z,37.46
2022-08-07T10:14:00.686Z,36.97
2022-08-07T10:15:44.325Z,36.35
2022-08-07T10:16:59.496Z,35.08
2022-08-07T10:18:21.570Z,34.81
2022-08-07T10:19:54.118Z,34.86
2022-08-07T10:21:03.141Z,34.43
2022-08-07T10:23:07.679Z,33.68
2022-08-07T10:24:18.846Z,33.23
2022-08-07T10:25:42.751Z,33.71
2022-08-07T10:27:29.980Z,35.91
2022-08-07T10:28:53.050Z,36.32
2022-08-07T10:30:17.913Z,35.90
2022-08-07T10:31:56.703Z,36.06
2022-08-07T10:34:05.995Z,36.44
2022-08-07T10:35:14.976Z,36.62
2022-08-07T10:37:03.963Z,37.30
2022-08-07T10:38:21.024Z,37.32
2022-08-07T10:40:14.727Z,37.56
2022-08-07T10:41:47.370Z,37.31
2022-08-07T10:43:08.604Z,36.57
2022-08-07T10:44:16.977Z,36.04
2022-08-07T10:45:58.749Z,35.09
2022-08-07T10:47:14.003Z,34.39
2022-08-07T10:48:34.956Z,34.18
2022-08-07T10:49:56.431Z,33.48
2022-08-07T10:51:06.320Z,33.84
2022-08-07T10:52:33.917Z,33.77
2022-08-07T10:54:04.475Z,34.18
2022-08-07T10:55:38.225Z,34.66
2022-08-07T10:56:49.135Z,34.57
2022-08-07T10:58:13.729Z,34.47
2022-08-07T10:59:53.302Z,34.67
2022-08-07T11:01:22.258Z,34.20
2022-08-07T11:02:48.920Z,34.39
2022-08-07T11:04:31.462Z,35.24
2022-08-07T11:05:57.181Z,35.03
2022-08-07T11:07:59.023Z,34.73
2022-08-07T11:10:09.563Z,33.30
2022-08-07T11:10:57.817Z,33.75
2022-08-07T11:12:06.611Z,33.06
2022-08-07T11:14:45.417Z,33.92
2022-08-07T11:15:17.878Z,33.52
2022-08-07T11:16:30.630Z,33.20
2022-08-07T11:18:03.698Z,33.07
2022-08-07T11:19:29.260Z,33.11
2022-08-07T11:20:56.868Z,33.45
2022-08-07T11:22:32.361Z,32.85
2022-08-07T11:23:52.570Z,34.33
2022-08-07T11:25:09.742Z,35.93
2022-08-07T11:26:26.629Z,36.44
2022-08-07T11:28:02.536Z,36.14
2022-08-07T11:29:40.963Z,36.63
2022-08-07T11:30:50.978Z,37.51
2022-08-07T11:32:01.496Z,37.88
2022-08-07T11:33:16.945Z,37.83
2022-08-07T11:34:40.864Z,38.24
2022-08-07T11:36:14.509Z,38.58
2022-08-07T11:37:58.461Z,40.32
2022-08-07T11:40:00.192Z,40.82
2022-08-07T11:41:22.223Z,41.69
2022-08-07T11:42:54.151Z,42.40
2022-08-07T11:44:12.093Z,42.69
2022-08-07T11:45:36.442Z,42.67
2022-08-07T11:47:10.019Z,43.84
2022-08-07T11:48:32.637Z,43.76
2022-08-07T11:50:25.521Z,43.98
2022-08-07T11:51:04.488Z,43.96
2022-08-07T11:52:39.847Z,43.85
2022-08-07T11:54:10.167Z,44.34
2022-08-07T11:56:24.746Z,43.11
2022-08-07T11:57:12.729Z,43.40
2022-08-07T11:58:57.045Z,43.25
2022-08-07T12:00:11.106Z,43.22
2022-08-07T12:01:59.084Z,43.14
2022-08-07T12:03:44.561Z,42.74
2022-08-07T12:05:09.123Z,42.93
2022-08-07T12:06:56.221Z,43.10
2022-08-07T12:08:25.725Z,41.95
2022-08-07T12:09:42.855Z,41.95
2022-08-07T12:11:20.298Z,42.17
2022-08-07T12:12:31.688Z,42.37
2022-08-07T12:13:51.023Z,42.19
2022-08-07T12:15:05.281Z,42.12
2022-08-07T12:16:30.298Z,42.09
2022-08-07T12:17:59.765Z,42.39
2022-08-07T12:20:05.390Z,41.85
2022-08-07T12:21:16.457Z,42.00
2022-08-07T12:23:01.518Z,42.58
2022-08-07T12:24:40.670Z,42.70
2022-08-07T12:26:22.450Z,43.00
2022-08-07T12:27:27.706Z,42.72
2022-08-07T12:28:53.056Z,43.19
2022-08-07T12:30:03.086Z,43.13
2022-08-07T12:31:17.054Z,43.49
2022-08-07T12:32:38.674Z,43.88
2022-08-07T12:33:56.031Z,43.29
2022-08-07T12:35:05.592Z,43.56
2022-08-07T12:36:11.341Z,42.95
2022-08-07T12:37:27.689Z,42.97
2022-08-07T12:38:43.109Z,43.50
2022-08-07T12:39:51.498Z,43.36
2022-08-07T12:40:55.394Z,43.14
2022-08-07T12:42:01.110Z,43.35
2022-08-07T12:43:09.409Z,42.78
2022-08-07T12:44:17.363Z,42.93
2022-08-07T12:45:26.647Z,43.19
2022-08-07T12:46:48.780Z,42.85
2022-08-07T12:48:27.644Z,41.98
2022-08-07T12:49:51.129Z,42.24
2022-08-07T12:51:12.937Z,42.27
2022-08-07T12:52:52.947Z,42.34
2022-08-07T12:54:36.882Z,42.13
2022-08-07T12:56:02.546Z,41.86
2022-08-07T12:57:09.394Z,41.77
2022-08-07T12:58:17.892Z,41.51
2022-08-07T12:59:22.953Z,41.75
2022-08-07T13:01:11.682Z,41.14
2022-08-07T13:02:22.110Z,40.44
2022-08-07T13:04:00.546Z,40.59
2022-08-07T13:06:03.795Z,41.46
2022-08-07T13:07:09.052Z,40.92
2022-08-07T13:08:29.053Z,41.01
2022-08-07T13:10:19.769Z,43.19
2022-08-07T13:11:16.563Z,41.61
2022-08-07T13:12:58.611Z,41.80
2022-08-07T13:14:50.814Z,41.38
2022-08-07T13:16:02.273Z,40.38
2022-08-07T13:17:18.348Z,39.07
2022-08-07T13:19:02.892Z,40.19
2022-08-07T13:20:30.986Z,39.93
2022-08-07T13:22:02.040Z,39.48
2022-08-07T13:24:01.117Z,38.53
2022-08-07T13:24:57.082Z,38.71
2022-08-07T13:26:15.734Z,38.44
2022-08-07T13:28:13.849Z,37.47
2022-08-07T13:29:15.267Z,38.06
2022-08-07T13:30:19.430Z,38.34
2022-08-07T13:31:57.213Z,38.14
2022-08-07T13:34:11.686Z,36.97
2022-08-07T13:34:52.422Z,38.33
2022-08-07T13:36:05.400Z,39.09
2022-08-07T13:37:20.621Z,39.10
2022-08-07T13:38:35.217Z,39.35
2022-08-07T13:40:34.947Z,39.79
2022-08-07T13:41:29.255Z,39.81
2022-08-07T13:42:38.878Z,40.25
2022-08-07T13:43:52.491Z,40.60
2022-08-07T13:45:20.762Z,41.24
2022-08-07T13:46:22.131Z,41.52
2022-08-07T13:48:05.859Z,42.30
2022-08-07T13:48:59.356Z,42.45
2022-08-07T13:50:34.181Z,42.56
2022-08-07T13:52:04.976Z,42.87
2022-08-07T13:52:51.164Z,43.48
2022-08-07T13:54:23.783Z,43.77
2022-08-07T13:55:27.888Z,43.81
2022-08-07T13:56:36.294Z,44.46
2022-08-07T13:57:48.733Z,45.63
2022-08-07T13:59:10.268Z,46.15
2022-08-07T14:00:26.909Z,46.63
2022-08-07T14:01:33.236Z,47.46
2022-08-07T14:02:56.024Z,47.52
2022-08-07T14:04:06.682Z,47.51
2022-08-07T14:05:14.961Z,47.84
2022-08-07T14:06:17.794Z,48.06
2022-08-07T14:07:27.560Z,48.22
2022-08-07T14:08:29.618Z,48.22
2022-08-07T14:10:16.413Z,48.23
2022-08-07T14:11:02.001Z,48.46
2022-08-07T14:12:58.578Z,48.44
2022-08-07T14:14:06.950Z,48.02
2022-08-07T14:15:18.840Z,48.41
2022-08-07T14:16:31.979Z,48.65
2022-08-07T14:18:24.019Z,48.63
2022-08-07T14:19:03.171Z,49.20
2022-08-07T14:20:41.711Z,49.89
2022-08-07T14:22:03.054Z,49.79
2022-08-07T14:23:59.036Z,50.00
2022-08-07T14:24:48.626Z,50.11
2022-08-07T14:25:59.157Z,51.25
2022-08-07T14:28:33.202Z,51.65
2022-08-07T14:30:07.878Z,52.16
2022-08-07T14:31:14.249Z,52.12
2022-08-07T14:32:19.202Z,52.42
2022-08-07T14:33:23.618Z,52.24
2022-08-07T14:34:29.937Z,52.67
2022-08-07T14:35:44.626Z,52.69
2022-08-07T14:36:56.075Z,52.73
2022-08-07T14:38:05.609Z,52.56
2022-08-07T14:39:09.437Z,52.03
2022-08-07T14:40:26.737Z,50.62
2022-08-07T14:42:18.683Z,50.55
2022-08-07T14:43:57.848Z,51.41
2022-08-07T14:44:33.461Z,51.84
2022-08-07T14:45:54.502Z,51.91
2022-08-07T14:47:14.311Z,52.35
2022-08-07T14:48:20.511Z,52.01
2022-08-07T14:49:57.235Z,52.44
2022-08-07T14:50:54.938Z,51.97
2022-08-07T14:52:03.759Z,51.49
2022-08-07T14:53:13.873Z,51.02
2022-08-07T14:54:32.995Z,50.49
2022-08-07T14:55:56.185Z,50.54
2022-08-07T14:57:05.541Z,50.58
2022-08-07T14:58:07.703Z,51.01
2022-08-07T15:00:04.875Z,50.79
2022-08-07T15:00:52.369Z,50.22
2022-08-07T15:03:51.857Z,49.68
2022-08-07T15:04:53.190Z,49.01
2022-08-07T15:06:04.352Z,49.50
2022-08-07T15:07:17.848Z,49.26
2022-08-07T15:08:32.391Z,49.07
2022-08-07T15:09:58.048Z,48.29
2022-08-07T15:11:10.708Z,48.77
2022-08-07T15:12:25.902Z,48.85
2022-08-07T15:13:35.906Z,48.86
2022-08-07T15:14:57.637Z,48.35
2022-08-07T15:16:11.052Z,48.34
2022-08-07T15:17:18.089Z,48.55
2022-08-07T15:18:35.836Z,47.77
2022-08-07T15:20:30.878Z,47.60
2022-08-07T15:22:33.392Z,47.59
2022-08-07T15:26:40.826Z,46.76
2022-08-07T15:28:30.652Z,46.87
2022-08-07T15:30:04.794Z,46.08
2022-08-07T15:30:36.505Z,46.11
2022-08-07T15:32:05.059Z,46.08
2022-08-07T15:33:19.358Z,46.00
2022-08-07T15:34:22.755Z,44.26
2022-08-07T15:37:03.024Z,44.14
2022-08-07T15:38:17.886Z,43.68
2022-08-07T15:39:56.530Z,43.16
2022-08-07T15:42:47.833Z,44.79
2022-08-07T15:44:10.726Z,44.39
2022-08-07T15:47:03.673Z,44.63
2022-08-07T15:48:12.697Z,45.07
2022-08-07T15:49:16.355Z,46.25
2022-08-07T15:53:08.119Z,46.89
2022-08-07T15:54:12.356Z,46.77
2022-08-07T15:55:18.266Z,46.79
2022-08-07T15:56:24.266Z,46.50
2022-08-07T15:57:47.481Z,46.56
2022-08-07T15:58:53.795Z,46.21
2022-08-07T15:59:59.337Z,46.20
2022-08-07T16:01:12.655Z,46.48
2022-08-07T16:02:25.610Z,46.49
2022-08-07T16:03:47.092Z,46.89
2022-08-07T16:05:03.590Z,47.06
2022-08-07T16:06:27.431Z,47.38
2022-08-07T16:08:31.069Z,48.26
2022-08-07T16:09:14.130Z,49.30
2022-08-07T16:10:28.557Z,48.72
2022-08-07T16:11:52.705Z,49.16
2022-08-07T16:13:57.446Z,48.97
2022-08-07T16:15:05.846Z,49.87
2022-08-07T16:16:48.561Z,50.11
2022-08-07T16:18:02.160Z,50.82
2022-08-07T16:19:59.513Z,51.31
2022-08-07T16:22:02.277Z,51.45
2022-08-07T16:22:56.242Z,51.54
2022-08-07T16:24:09.102Z,51.48
2022-08-07T16:25:54.448Z,51.72
2022-08-07T16:27:06.117Z,52.21
2022-08-07T16:29:18.540Z,52.03
2022-08-07T16:30:30.902Z,52.36
2022-08-07T16:32:34.886Z,52.41
2022-08-07T16:34:02.250Z,52.54
2022-08-07T16:35:51.953Z,52.91
2022-08-07T16:37:02.726Z,52.60
2022-08-07T16:39:00.591Z,53.04
2022-08-07T16:40:28.284Z,52.79
2022-08-07T16:42:00.181Z,52.58
2022-08-07T16:44:05.913Z,52.41
2022-08-07T16:45:15.051Z,52.32